createdAt,value
2023-03-29T00:01:00.702Z,56.93
2023-03-29T00:03:30.647Z,56.88
2023-03-29T00:06:03.939Z,56.67
2023-03-29T00:08:34.036Z,56.09
2023-03-29T00:11:02.401Z,56.19
2023-03-29T00:13:30.367Z,56.24
2023-03-29T00:15:58.006Z,55.83
2023-03-29T00:18:30.299Z,55.76
2023-03-29T00:21:00.160Z,56.04
2023-03-29T00:23:28.596Z,56.27
2023-03-29T00:25:59.167Z,56.31
2023-03-29T00:28:27.182Z,56.80
2023-03-29T00:30:54.855Z,57.41
2023-03-29T00:33:22.898Z,57.24
2023-03-29T00:35:50.566Z,57.93
2023-03-29T00:38:20.635Z,57.98
2023-03-29T00:40:48.500Z,58.22
2023-03-29T00:43:16.993Z,58.58
2023-03-29T00:45:46.805Z,58.85
2023-03-29T00:48:18.441Z,58.76
2023-03-29T00:50:49.071Z,59.02
2023-03-29T00:53:33.469Z,58.98
2023-03-29T00:56:06.841Z,59.80
2023-03-29T00:58:39.351Z,59.21
2023-03-29T01:01:17.463Z,60.60
2023-03-29T01:03:54.588Z,59.89
2023-03-29T01:06:29.125Z,60.45
2023-03-29T01:09:01.281Z,60.74
2023-03-29T01:11:38.310Z,60.96
2023-03-29T01:14:11.697Z,60.97
2023-03-29T01:16:39.503Z,61.74
2023-03-29T01:19:15.458Z,62.21
2023-03-29T01:21:51.863Z,62.41
2023-03-29T01:24:58.691Z,61.94
2023-03-29T01:27:54.391Z,62.33
2023-03-29T01:30:38.524Z,62.52
2023-03-29T01:33:32.215Z,62.71
2023-03-29T01:36:19.310Z,62.97
2023-03-29T01:39:05.079Z,62.98
2023-03-29T01:41:48.144Z,63.17
2023-03-29T01:44:28.262Z,64.56
2023-03-29T01:47:07.317Z,63.78
2023-03-29T01:49:42.234Z,64.85
2023-03-29T01:52:23.869Z,63.93
2023-03-29T01:55:00.680Z,63.98
2023-03-29T01:57:28.736Z,64.48
2023-03-29T01:59:58.860Z,64.66
2023-03-29T02:02:30.455Z,64.34
2023-03-29T02:04:59.367Z,65.25
2023-03-29T02:07:32.324Z,64.70
2023-03-29T02:10:00.605Z,65.23
2023-03-29T02:12:28.307Z,64.67
2023-03-29T02:14:58.649Z,65.05
2023-03-29T02:17:28.610Z,65.07
2023-03-29T02:20:02.389Z,65.02
2023-03-29T02:22:41.262Z,65.51
2023-03-29T02:25:09.757Z,65.58
2023-03-29T02:27:38.823Z,65.30
2023-03-29T02:30:10.037Z,65.67
2023-03-29T02:32:50.206Z,65.95
2023-03-29T02:35:54.567Z,66.90
2023-03-29T02:38:27.814Z,68.29
2023-03-29T02:40:57.380Z,68.92
2023-03-29T02:43:28.564Z,69.72
2023-03-29T02:45:57.057Z,69.79
2023-03-29T02:48:28.664Z,69.32
2023-03-29T02:51:01.782Z,70.14
2023-03-29T02:53:43.109Z,70.88
2023-03-29T02:56:12.069Z,71.40
2023-03-29T02:58:39.716Z,71.82
2023-03-29T03:01:10.405Z,71.69
2023-03-29T03:03:40.309Z,72.48
2023-03-29T03:06:08.487Z,72.24
2023-03-29T03:08:36.279Z,72.53
2023-03-29T03:11:04.140Z,72.77
2023-03-29T03:13:32.011Z,72.56
2023-03-29T03:16:03.578Z,72.66
2023-03-29T03:18:31.881Z,72.71
2023-03-29T03:21:01.855Z,72.78
2023-03-29T03:23:30.418Z,73.19
2023-03-29T03:26:03.101Z,73.27
2023-03-29T03:28:32.295Z,73.38
2023-03-29T03:31:02.255Z,73.31
2023-03-29T03:33:32.938Z,72.17
2023-03-29T03:36:04.875Z,72.55
2023-03-29T03:38:33.762Z,72.78
2023-03-29T03:41:03.723Z,72.76
2023-03-29T03:43:31.584Z,71.35
2023-03-29T03:45:59.647Z,72.54
2023-03-29T03:48:27.350Z,72.27
2023-03-29T03:50:58.237Z,73.23
2023-03-29T03:53:28.438Z,72.96
2023-03-29T03:55:57.498Z,72.99
2023-03-29T03:58:26.273Z,72.82
2023-03-29T04:00:54.989Z,73.64
2023-03-29T04:03:25.208Z,73.87
2023-03-29T04:05:52.852Z,73.47
2023-03-29T04:08:23.418Z,74.11
2023-03-29T04:10:55.268Z,74.13
2023-03-29T04:13:23.915Z,75.25
2023-03-29T04:15:54.349Z,74.75
2023-03-29T04:18:23.023Z,74.37
2023-03-29T04:20:51.555Z,74.01
2023-03-29T04:23:19.498Z,73.50
2023-03-29T04:25:47.422Z,72.78
2023-03-29T04:28:17.430Z,72.54
2023-03-29T04:30:47.340Z,72.66
2023-03-29T04:33:15.283Z,72.54
2023-03-29T04:35:45.313Z,72.35
2023-03-29T04:38:13.196Z,72.94
2023-03-29T04:40:40.908Z,73.68
2023-03-29T04:43:10.666Z,74.12
2023-03-29T04:45:38.289Z,73.87
2023-03-29T04:48:06.043Z,73.66
2023-03-29T04:50:34.816Z,73.87
2023-03-29T04:53:05.117Z,73.46
2023-03-29T04:55:32.798Z,73.40
2023-03-29T04:58:02.903Z,72.64
2023-03-29T05:00:33.020Z,72.63
2023-03-29T05:03:00.783Z,72.25
2023-03-29T05:05:28.486Z,71.64
2023-03-29T05:07:56.090Z,71.60
2023-03-29T05:10:24.361Z,70.31
2023-03-29T05:12:54.805Z,71.30
2023-03-29T05:15:24.650Z,71.22
2023-03-29T05:17:52.334Z,71.29
2023-03-29T05:20:20.078Z,70.38
2023-03-29T05:22:48.719Z,70.95
2023-03-29T05:25:18.839Z,70.63
2023-03-29T05:27:46.839Z,69.62
2023-03-29T05:30:15.921Z,70.42
2023-03-29T05:32:43.982Z,70.16
2023-03-29T05:35:11.892Z,69.46
2023-03-29T05:37:39.591Z,68.76
2023-03-29T05:40:10.419Z,67.42
2023-03-29T05:42:38.893Z,65.14
2023-03-29T05:45:12.028Z,64.69
2023-03-29T05:47:39.729Z,64.82
2023-03-29T05:50:09.702Z,64.77
2023-03-29T05:52:41.189Z,65.01
2023-03-29T05:55:12.254Z,64.11
2023-03-29T05:57:42.199Z,64.21
2023-03-29T06:00:20.124Z,63.48
2023-03-29T06:02:48.318Z,62.35
2023-03-29T06:05:16.145Z,62.32
2023-03-29T06:07:43.834Z,61.78
2023-03-29T06:10:12.985Z,61.63
2023-03-29T06:12:43.074Z,61.18
2023-03-29T06:15:13.336Z,61.73
2023-03-29T06:17:41.444Z,61.89
2023-03-29T06:20:11.879Z,61.52
2023-03-29T06:22:40.177Z,61.10
2023-03-29T06:25:10.985Z,60.56
2023-03-29T06:27:38.853Z,60.12
2023-03-29T06:30:12.212Z,60.04
2023-03-29T06:32:42.535Z,59.86
2023-03-29T06:35:12.964Z,59.70
2023-03-29T06:37:49.330Z,59.25
2023-03-29T06:40:19.222Z,58.55
2023-03-29T06:42:48.745Z,57.81
2023-03-29T06:45:16.929Z,57.48
2023-03-29T06:47:47.082Z,57.37
2023-03-29T06:50:17.382Z,57.28
2023-03-29T06:52:47.078Z,56.18
2023-03-29T06:55:15.919Z,55.81
2023-03-29T06:57:43.877Z,55.49
2023-03-29T07:00:20.057Z,54.63
2023-03-29T07:02:47.703Z,54.22
2023-03-29T07:05:16.210Z,53.72
2023-03-29T07:08:02.626Z,54.22
2023-03-29T07:10:33.572Z,52.84
2023-03-29T07:13:05.868Z,53.81
2023-03-29T07:15:37.188Z,53.76
2023-03-29T07:18:07.366Z,53.86
2023-03-29T07:20:39.080Z,53.58
2023-03-29T07:23:08.204Z,52.32
2023-03-29T07:25:36.402Z,52.20
2023-03-29T07:28:04.852Z,50.61
2023-03-29T07:30:37.209Z,48.52
2023-03-29T07:33:05.029Z,46.85
2023-03-29T07:35:32.941Z,43.01
2023-03-29T07:38:00.877Z,43.06
2023-03-29T07:40:31.310Z,41.29
2023-03-29T07:43:00.439Z,41.56
2023-03-29T07:45:29.830Z,40.83
2023-03-29T07:47:59.970Z,38.89
2023-03-29T07:50:28.699Z,38.02
2023-03-29T07:52:56.920Z,39.78
2023-03-29T07:55:24.705Z,39.20
2023-03-29T07:57:52.792Z,39.07
2023-03-29T08:00:21.005Z,40.35
2023-03-29T08:02:52.315Z,38.81
2023-03-29T08:05:37.974Z,41.45
2023-03-29T08:08:09.810Z,41.55
2023-03-29T08:10:40.522Z,40.83
2023-03-29T08:13:13.926Z,40.27
2023-03-29T08:15:46.219Z,40.06
2023-03-29T08:18:14.102Z,40.55
2023-03-29T08:20:42.615Z,39.18
2023-03-29T08:23:12.823Z,39.78
2023-03-29T08:25:40.674Z,39.66
2023-03-29T08:28:08.685Z,39.61
2023-03-29T08:30:36.375Z,37.16
2023-03-29T08:33:04.098Z,38.57
2023-03-29T08:35:32.371Z,37.06
2023-03-29T08:38:05.404Z,35.66
2023-03-29T08:40:38.694Z,34.53
2023-03-29T08:43:12.495Z,33.65
2023-03-29T08:45:49.734Z,33.76
2023-03-29T08:48:42.284Z,33.51
2023-03-29T08:51:23.429Z,32.04
2023-03-29T08:53:55.142Z,30.07
2023-03-29T08:56:27.615Z,31.13
2023-03-29T08:58:58.317Z,30.88
2023-03-29T09:01:28.960Z,31.00
2023-03-29T09:04:13.984Z,29.32
2023-03-29T09:06:43.163Z,28.58
2023-03-29T09:09:21.050Z,28.87
2023-03-29T09:12:07.339Z,26.83
2023-03-29T09:15:06.782Z,26.65
2023-03-29T09:17:53.262Z,24.69
2023-03-29T09:20:31.413Z,25.78
2023-03-29T09:23:28.447Z,25.90
2023-03-29T09:26:02.175Z,24.74
2023-03-29T09:28:42.771Z,25.39
2023-03-29T09:31:24.010Z,24.37
2023-03-29T09:34:20.932Z,25.17
2023-03-29T09:36:55.470Z,25.73
2023-03-29T09:39:24.032Z,25.53
2023-03-29T09:41:58.240Z,26.03
2023-03-29T09:44:32.103Z,24.47
2023-03-29T09:47:08.412Z,26.05
2023-03-29T09:49:41.512Z,25.48
2023-03-29T09:52:14.219Z,24.41
2023-03-29T09:54:42.128Z,24.11
2023-03-29T09:57:15.124Z,24.61
2023-03-29T09:59:43.067Z,24.80
2023-03-29T10:02:14.121Z,25.17
2023-03-29T10:04:43.263Z,24.84
2023-03-29T10:07:19.153Z,24.65
2023-03-29T10:09:47.871Z,24.58
2023-03-29T10:12:17.560Z,24.83
2023-03-29T10:14:53.872Z,24.95
2023-03-29T10:17:28.051Z,23.89
2023-03-29T10:20:04.223Z,24.48
2023-03-29T10:22:38.571Z,23.98
2023-03-29T10:25:14.879Z,22.95
2023-03-29T10:27:44.696Z,24.50
2023-03-29T10:30:19.925Z,24.56
2023-03-29T10:32:48.172Z,24.13
2023-03-29T10:35:16.395Z,23.47
2023-03-29T10:37:46.156Z,24.24
2023-03-29T10:40:35.156Z,25.04
2023-03-29T10:43:14.534Z,25.11
2023-03-29T10:45:42.597Z,24.01
2023-03-29T10:48:15.756Z,24.93
2023-03-29T10:50:44.095Z,25.40
2023-03-29T10:53:17.951Z,25.60
2023-03-29T10:55:59.534Z,25.13
2023-03-29T10:58:40.181Z,25.20
2023-03-29T11:01:19.216Z,23.96
2023-03-29T11:04:16.675Z,24.91
2023-03-29T11:06:59.757Z,24.51
2023-03-29T11:09:59.463Z,23.78
2023-03-29T11:13:02.835Z,24.36
2023-03-29T11:16:01.816Z,24.75
2023-03-29T11:18:48.292Z,25.22
2023-03-29T11:21:34.347Z,26.94
2023-03-29T11:24:27.385Z,25.97
2023-03-29T11:27:28.450Z,25.98
2023-03-29T11:30:02.344Z,26.53
2023-03-29T11:32:35.784Z,26.07
2023-03-29T11:35:36.380Z,24.98
2023-03-29T11:38:34.474Z,25.07
2023-03-29T11:41:10.912Z,25.85
2023-03-29T11:43:55.133Z,25.78
2023-03-29T11:47:04.990Z,25.03
2023-03-29T11:49:39.205Z,25.57
2023-03-29T11:52:12.701Z,24.86
2023-03-29T11:54:46.126Z,24.36
2023-03-29T11:57:40.212Z,25.46
2023-03-29T12:00:26.157Z,25.92
2023-03-29T12:02:58.060Z,26.70
2023-03-29T12:05:44.432Z,25.90
2023-03-29T12:08:19.975Z,25.91
2023-03-29T12:10:54.220Z,25.69
2023-03-29T12:13:35.995Z,26.76
2023-03-29T12:16:38.013Z,26.70
2023-03-29T12:19:16.445Z,26.54
2023-03-29T12:21:48.335Z,27.07
2023-03-29T12:24:18.205Z,26.61
2023-03-29T12:27:17.138Z,26.87
2023-03-29T12:30:17.238Z,27.12
2023-03-29T12:33:10.596Z,27.95
2023-03-29T12:36:06.034Z,28.98
2023-03-29T12:38:34.232Z,29.89
2023-03-29T12:41:06.172Z,29.55
2023-03-29T12:43:37.981Z,30.10
2023-03-29T12:46:11.447Z,29.56
2023-03-29T12:48:44.454Z,29.68
2023-03-29T12:51:16.263Z,29.55
2023-03-29T12:53:48.280Z,30.13
2023-03-29T12:56:19.016Z,30.40
2023-03-29T12:58:48.302Z,31.25
2023-03-29T13:01:34.291Z,31.61
2023-03-29T13:04:03.907Z,32.16
2023-03-29T13:06:53.641Z,32.49
2023-03-29T13:09:22.038Z,32.77
2023-03-29T13:11:58.539Z,33.16
2023-03-29T13:14:32.855Z,33.51
2023-03-29T13:17:24.536Z,32.62
2023-03-29T13:20:17.252Z,33.04
2023-03-29T13:22:44.811Z,32.93
2023-03-29T13:25:15.508Z,32.16
2023-03-29T13:27:57.474Z,32.36
2023-03-29T13:30:49.498Z,32.82
2023-03-29T13:33:38.227Z,33.40
2023-03-29T13:36:11.597Z,34.27
2023-03-29T13:38:50.946Z,35.10
2023-03-29T13:41:40.341Z,35.25
2023-03-29T13:44:30.223Z,35.93
2023-03-29T13:47:27.215Z,35.36
2023-03-29T13:49:59.209Z,35.13
2023-03-29T13:52:34.308Z,35.15
2023-03-29T13:55:08.665Z,35.16
2023-03-29T13:57:41.873Z,35.34
2023-03-29T14:00:21.670Z,35.95
2023-03-29T14:03:13.290Z,35.73
2023-03-29T14:05:45.262Z,35.79
2023-03-29T14:08:27.259Z,35.68
2023-03-29T14:10:55.441Z,35.93
2023-03-29T14:13:27.123Z,36.53
2023-03-29T14:16:00.119Z,36.86
2023-03-29T14:18:30.497Z,37.03
2023-03-29T14:20:58.207Z,37.21
2023-03-29T14:23:28.299Z,37.65
2023-03-29T14:25:57.260Z,37.89
2023-03-29T14:28:26.561Z,38.24
2023-03-29T14:30:54.818Z,37.89
2023-03-29T14:33:34.971Z,38.35
2023-03-29T14:36:04.996Z,38.92
2023-03-29T14:38:33.565Z,38.54
2023-03-29T14:41:03.118Z,38.27
2023-03-29T14:43:32.323Z,38.74
2023-03-29T14:46:04.306Z,39.05
2023-03-29T14:48:33.378Z,39.15
2023-03-29T14:51:01.813Z,39.17
2023-03-29T14:53:34.484Z,39.56
2023-03-29T14:56:06.787Z,39.61
2023-03-29T14:58:36.604Z,39.24
2023-03-29T15:01:27.958Z,39.35
2023-03-29T15:04:03.554Z,39.32
2023-03-29T15:06:32.212Z,39.49
2023-03-29T15:09:05.333Z,39.59
2023-03-29T15:11:39.778Z,39.34
2023-03-29T15:14:17.149Z,39.27
2023-03-29T15:16:47.497Z,39.46
2023-03-29T15:19:24.278Z,39.51
2023-03-29T15:21:55.054Z,39.49
2023-03-29T15:24:35.616Z,39.23
2023-03-29T15:27:18.160Z,39.41
2023-03-29T15:29:48.049Z,39.69
2023-03-29T15:32:24.145Z,39.79
2023-03-29T15:35:09.510Z,40.32
2023-03-29T15:37:37.873Z,39.91
2023-03-29T15:40:09.885Z,40.36
2023-03-29T15:42:39.758Z,40.05
2023-03-29T15:45:15.455Z,40.33
2023-03-29T15:47:46.618Z,40.69
2023-03-29T15:50:15.524Z,40.85
2023-03-29T15:52:45.655Z,40.66
2023-03-29T15:55:13.262Z,40.44
2023-03-29T15:57:43.778Z,40.60
2023-03-29T16:00:14.379Z,40.66
2023-03-29T16:02:42.562Z,40.59
2023-03-29T16:05:13.106Z,40.51
2023-03-29T16:07:40.809Z,40.65
2023-03-29T16:10:09.013Z,41.14
2023-03-29T16:12:38.515Z,41.08
2023-03-29T16:15:19.462Z,40.89
2023-03-29T16:17:47.608Z,41.19
2023-03-29T16:20:20.104Z,41.50
2023-03-29T16:22:48.940Z,41.60
2023-03-29T16:25:19.165Z,41.68
2023-03-29T16:27:47.090Z,41.98
2023-03-29T16:30:15.054Z,41.76
2023-03-29T16:32:43.130Z,42.63
2023-03-29T16:35:21.791Z,42.62
2023-03-29T16:37:49.514Z,42.69
2023-03-29T16:40:17.334Z,42.89
2023-03-29T16:42:45.258Z,42.84
2023-03-29T16:45:18.424Z,43.41
2023-03-29T16:47:47.588Z,43.03
2023-03-29T16:50:19.015Z,43.36
2023-03-29T16:52:48.494Z,43.47
2023-03-29T16:55:19.048Z,43.63
2023-03-29T16:57:48.548Z,43.49
2023-03-29T17:00:19.894Z,43.83
2023-03-29T17:02:50.990Z,44.19
2023-03-29T17:05:19.828Z,44.26
2023-03-29T17:07:47.518Z,45.01
2023-03-29T17:10:15.555Z,45.27
2023-03-29T17:12:43.226Z,45.85
2023-03-29T17:15:13.056Z,46.12
2023-03-29T17:17:41.134Z,45.86
2023-03-29T17:20:11.989Z,47.36
2023-03-29T17:22:40.756Z,47.28
2023-03-29T17:25:09.758Z,49.03
2023-03-29T17:27:38.497Z,49.12
2023-03-29T17:30:07.722Z,48.97
2023-03-29T17:32:37.591Z,49.73
2023-03-29T17:35:05.767Z,51.13
2023-03-29T17:37:33.383Z,51.03
2023-03-29T17:40:01.293Z,50.41
2023-03-29T17:42:30.357Z,51.87
2023-03-29T17:44:58.054Z,51.59
2023-03-29T17:47:25.836Z,51.67
2023-03-29T17:49:53.502Z,52.49
2023-03-29T17:52:21.138Z,52.53
2023-03-29T17:54:51.111Z,53.47
2023-03-29T17:57:18.820Z,53.47
2023-03-29T17:59:48.670Z,54.03
2023-03-29T18:02:25.770Z,53.61
2023-03-29T18:04:53.481Z,54.02
2023-03-29T18:07:21.076Z,53.25
2023-03-29T18:09:48.732Z,54.60
2023-03-29T18:12:16.704Z,54.79
2023-03-29T18:14:44.613Z,55.28
2023-03-29T18:17:12.252Z,54.65
2023-03-29T18:19:42.383Z,55.18
2023-03-29T18:22:10.048Z,55.41
2023-03-29T18:24:37.666Z,55.82
2023-03-29T18:27:05.567Z,56.31
2023-03-29T18:29:33.262Z,55.83
2023-03-29T18:32:03.127Z,56.04
2023-03-29T18:34:54.021Z,56.91
2023-03-29T18:37:28.832Z,57.24
2023-03-29T18:40:14.776Z,57.54
2023-03-29T18:45:39.541Z,58.33
2023-03-29T18:48:08.085Z,58.39
2023-03-29T18:50:37.485Z,59.02
2023-03-29T18:53:05.585Z,58.15
2023-03-29T18:55:35.698Z,59.08
2023-03-29T18:58:03.527Z,59.28
2023-03-29T19:00:32.153Z,59.79
2023-03-29T19:02:59.934Z,59.46
2023-03-29T19:05:28.804Z,59.37
2023-03-29T19:07:56.443Z,59.98
2023-03-29T19:10:24.728Z,60.11
2023-03-29T19:12:53.385Z,59.69
2023-03-29T19:15:21.062Z,59.97
2023-03-29T19:17:48.682Z,61.29
2023-03-29T19:20:16.635Z,60.69
2023-03-29T19:22:44.293Z,60.94
2023-03-29T19:25:12.144Z,61.13
2023-03-29T19:27:42.244Z,61.31
2023-03-29T19:30:11.726Z,61.08
2023-03-29T19:32:39.424Z,61.45
2023-03-29T19:35:09.692Z,61.65
2023-03-29T19:37:37.551Z,61.14
2023-03-29T19:40:07.132Z,61.79
2023-03-29T19:42:37.478Z,60.90
2023-03-29T19:45:10.361Z,61.50
2023-03-29T19:47:38.072Z,61.84
2023-03-29T19:50:07.036Z,61.24
2023-03-29T19:52:34.643Z,61.67
2023-03-29T19:55:02.342Z,62.12
2023-03-29T19:57:30.855Z,62.14
2023-03-29T19:59:58.608Z,62.34
2023-03-29T20:02:26.458Z,62.40
2023-03-29T20:04:55.122Z,61.89
2023-03-29T20:07:22.816Z,62.04
2023-03-29T20:09:50.466Z,62.32
2023-03-29T20:12:18.459Z,63.21
2023-03-29T20:14:46.249Z,63.76
2023-03-29T20:17:16.626Z,63.85
2023-03-29T20:19:44.771Z,64.34
2023-03-29T20:22:15.661Z,65.11
2023-03-29T20:24:47.317Z,65.43
2023-03-29T20:27:15.988Z,65.85
2023-03-29T20:29:43.644Z,66.26
2023-03-29T20:32:11.359Z,66.59
2023-03-29T20:34:39.054Z,67.21
2023-03-29T20:37:06.870Z,66.64
2023-03-29T20:39:34.689Z,67.65
2023-03-29T20:42:04.727Z,68.03
2023-03-29T20:44:35.475Z,68.24
2023-03-29T20:47:08.747Z,68.30
2023-03-29T20:49:38.172Z,68.40
2023-03-29T20:52:06.151Z,68.50
2023-03-29T20:54:34.325Z,68.70
2023-03-29T20:57:02.204Z,68.24
2023-03-29T20:59:30.059Z,67.49
2023-03-29T21:02:00.200Z,66.12
2023-03-29T21:04:29.740Z,66.15
2023-03-29T21:07:02.450Z,66.04
2023-03-29T21:09:31.306Z,67.69
2023-03-29T21:11:58.942Z,67.94
2023-03-29T21:14:30.232Z,66.42
2023-03-29T21:16:57.877Z,66.23
2023-03-29T21:19:25.529Z,67.72
2023-03-29T21:21:55.664Z,66.71
2023-03-29T21:24:23.660Z,67.90
2023-03-29T21:26:51.338Z,68.65
2023-03-29T21:29:18.939Z,67.67
2023-03-29T21:31:49.151Z,67.55
2023-03-29T21:34:16.872Z,68.17
2023-03-29T21:36:44.531Z,68.55
2023-03-29T21:39:12.188Z,69.38
2023-03-29T21:41:42.028Z,70.81
2023-03-29T21:44:10.013Z,70.59
2023-03-29T21:46:38.193Z,71.04
2023-03-29T21:49:06.312Z,71.29
2023-03-29T21:51:35.229Z,71.54
2023-03-29T21:54:05.421Z,72.52
2023-03-29T21:56:33.070Z,72.54
2023-03-29T21:59:00.775Z,72.65
2023-03-29T22:01:28.551Z,72.89
2023-03-29T22:03:59.363Z,72.77
2023-03-29T22:06:29.313Z,72.83
2023-03-29T22:08:57.040Z,73.62
2023-03-29T22:11:25.655Z,73.88
2023-03-29T22:13:56.740Z,73.99
2023-03-29T22:16:25.922Z,74.91
2023-03-29T22:18:54.353Z,75.04
2023-03-29T22:21:28.475Z,75.36
2023-03-29T22:23:57.634Z,75.99
2023-03-29T22:26:28.579Z,74.70
2023-03-29T22:28:57.266Z,75.47
2023-03-29T22:31:27.084Z,76.31
2023-03-29T22:33:55.032Z,75.93
2023-03-29T22:36:28.588Z,75.92
2023-03-29T22:38:56.741Z,77.05
2023-03-29T22:41:26.157Z,76.71
2023-03-29T22:43:57.938Z,77.44
2023-03-29T22:46:26.386Z,78.07
2023-03-29T22:48:54.308Z,77.92
2023-03-29T22:51:22.461Z,78.58
2023-03-29T22:53:50.186Z,78.05
2023-03-29T22:56:18.646Z,77.35
2023-03-29T22:58:46.510Z,78.54
2023-03-29T23:01:14.468Z,78.21
2023-03-29T23:03:42.419Z,78.53
2023-03-29T23:06:10.294Z,78.79
2023-03-29T23:08:38.117Z,78.92
2023-03-29T23:11:07.407Z,79.08
2023-03-29T23:13:35.213Z,79.47
2023-03-29T23:16:05.426Z,79.38
2023-03-29T23:18:37.693Z,79.50
2023-03-29T23:21:08.905Z,79.87
2023-03-29T23:23:36.908Z,80.36
2023-03-29T23:26:04.940Z,80.38
2023-03-29T23:28:34.766Z,80.34
2023-03-29T23:31:11.741Z,79.83
2023-03-29T23:33:41.742Z,79.64
2023-03-29T23:36:15.925Z,79.67
2023-03-29T23:38:46.161Z,79.81
2023-03-29T23:41:14.753Z,80.01
2023-03-29T23:43:47.103Z,80.47
2023-03-29T23:46:17.746Z,80.07
2023-03-29T23:48:47.138Z,79.91
2023-03-29T23:51:15.140Z,80.01
2023-03-29T23:53:42.743Z,79.75
2023-03-29T23:56:10.608Z,79.65
2023-03-29T23:58:39.206Z,79.75
